createdAt,value
2023-01-06T00:01:18.237Z,4.50
2023-01-06T00:03:51.875Z,4.50
2023-01-06T00:06:20.223Z,4.40
2023-01-06T00:08:47.289Z,4.50
2023-01-06T00:11:15.373Z,4.40
2023-01-06T00:13:42.452Z,4.30
2023-01-06T00:16:15.747Z,4.30
2023-01-06T00:18:43.178Z,4.30
2023-01-06T00:21:11.242Z,4.30
2023-01-06T00:23:38.944Z,4.30
2023-01-06T00:26:08.546Z,4.30
2023-01-06T00:28:35.950Z,4.20
2023-01-06T00:31:09.341Z,4.20
2023-01-06T00:33:37.052Z,4.10
2023-01-06T00:36:05.336Z,4.10
2023-01-06T00:38:32.961Z,4.00
2023-01-06T00:41:27.247Z,4.00
2023-01-06T00:43:57.426Z,4.00
2023-01-06T00:46:29.470Z,3.90
2023-01-06T00:49:06.643Z,3.90
2023-01-06T00:51:37.225Z,3.80
2023-01-06T00:54:05.457Z,3.90
2023-01-06T00:56:35.298Z,3.90
2023-01-06T00:59:03.416Z,3.80
2023-01-06T01:01:30.588Z,3.80
2023-01-06T01:03:57.727Z,3.70
2023-01-06T01:06:24.840Z,3.70
2023-01-06T01:08:56.515Z,3.70
2023-01-06T01:11:43.134Z,3.70
2023-01-06T01:14:11.513Z,3.70
2023-01-06T01:16:40.686Z,3.60
2023-01-06T01:19:08.875Z,3.60
2023-01-06T01:21:36.139Z,3.50
2023-01-06T01:24:03.818Z,3.50
2023-01-06T01:26:31.011Z,3.50
2023-01-06T01:28:58.503Z,3.50
2023-01-06T01:31:25.761Z,3.50
2023-01-06T01:33:53.227Z,3.40
2023-01-06T01:36:21.345Z,3.40
2023-01-06T01:38:49.430Z,3.50
2023-01-06T01:41:24.217Z,3.50
2023-01-06T01:43:52.785Z,3.60
2023-01-06T01:46:46.334Z,3.70
2023-01-06T01:49:24.323Z,3.60
2023-01-06T01:51:54.658Z,3.50
2023-01-06T01:54:34.393Z,3.50
2023-01-06T01:57:14.914Z,3.30
2023-01-06T01:59:43.221Z,3.20
2023-01-06T02:02:12.613Z,3.10
2023-01-06T02:04:42.594Z,3.00
2023-01-06T02:07:10.428Z,2.90
2023-01-06T02:09:49.948Z,2.90
2023-01-06T02:12:17.055Z,2.80
2023-01-06T02:14:44.150Z,2.70
2023-01-06T02:17:44.446Z,2.80
2023-01-06T02:20:40.472Z,2.70
2023-01-06T02:23:26.462Z,2.70
2023-01-06T02:26:11.852Z,2.60
2023-01-06T02:29:11.513Z,2.50
2023-01-06T02:31:44.443Z,2.40
2023-01-06T02:34:33.656Z,2.30
2023-01-06T02:37:41.068Z,2.30
2023-01-06T02:40:45.801Z,2.30
2023-01-06T02:43:27.147Z,2.30
2023-01-06T02:46:24.042Z,2.20
2023-01-06T02:49:15.884Z,2.30
2023-01-06T02:51:59.784Z,2.30
2023-01-06T02:54:38.078Z,2.20
2023-01-06T02:57:14.184Z,2.10
2023-01-06T02:59:53.031Z,2.10
2023-01-06T03:02:21.231Z,2.00
2023-01-06T03:04:50.836Z,2.10
2023-01-06T03:07:21.687Z,2.10
2023-01-06T03:09:53.525Z,2.00
2023-01-06T03:12:32.393Z,2.00
2023-01-06T03:15:00.274Z,1.90
2023-01-06T03:17:28.105Z,1.90
2023-01-06T03:19:55.271Z,1.90
2023-01-06T03:22:24.034Z,2.00
2023-01-06T03:24:51.092Z,2.10
2023-01-06T03:27:25.969Z,2.10
2023-01-06T03:29:54.415Z,2.10
2023-01-06T03:33:01.085Z,2.10
2023-01-06T03:35:52.715Z,2.00
2023-01-06T03:38:23.603Z,1.90
2023-01-06T03:40:56.038Z,1.80
2023-01-06T03:44:07.887Z,1.80
2023-01-06T03:46:42.475Z,1.80
2023-01-06T03:49:41.836Z,1.90
2023-01-06T03:52:25.110Z,1.90
2023-01-06T03:55:04.283Z,1.90
2023-01-06T03:57:39.167Z,2.00
2023-01-06T04:00:24.027Z,2.00
2023-01-06T04:03:00.844Z,2.10
2023-01-06T04:05:29.540Z,2.10
2023-01-06T04:07:59.152Z,2.20
2023-01-06T04:10:27.129Z,2.20
2023-01-06T04:12:57.190Z,2.30
2023-01-06T04:15:29.618Z,2.30
2023-01-06T04:17:58.624Z,2.40
2023-01-06T04:20:30.106Z,2.40
2023-01-06T04:23:06.906Z,2.40
2023-01-06T04:25:38.658Z,2.50
2023-01-06T04:28:14.099Z,2.50
2023-01-06T04:30:42.544Z,2.50
2023-01-06T04:33:10.281Z,2.50
2023-01-06T04:35:39.473Z,2.60
2023-01-06T04:38:06.549Z,2.50
2023-01-06T04:40:33.607Z,2.50
2023-01-06T04:43:06.441Z,2.50
2023-01-06T04:45:35.039Z,2.60
2023-01-06T04:48:02.256Z,2.60
2023-01-06T04:50:29.469Z,2.60
2023-01-06T04:52:56.573Z,2.70
2023-01-06T04:55:24.325Z,2.80
2023-01-06T04:57:51.765Z,2.70
2023-01-06T05:00:19.287Z,2.70
2023-01-06T05:02:47.319Z,2.70
2023-01-06T05:05:15.711Z,2.80
2023-01-06T05:07:42.958Z,2.80
2023-01-06T05:10:11.033Z,2.80
2023-01-06T05:12:38.177Z,2.90
2023-01-06T05:15:06.506Z,2.90
2023-01-06T05:17:33.554Z,2.90
2023-01-06T05:20:00.735Z,2.90
2023-01-06T05:22:27.864Z,2.80
2023-01-06T05:24:54.913Z,2.80
2023-01-06T05:27:22.067Z,2.80
2023-01-06T05:29:49.390Z,2.80
2023-01-06T05:32:16.445Z,2.80
2023-01-06T05:34:43.601Z,2.80
2023-01-06T05:37:10.699Z,2.80
2023-01-06T05:39:37.791Z,2.80
2023-01-06T05:42:05.042Z,2.80
2023-01-06T05:44:32.084Z,2.80
2023-01-06T05:46:59.206Z,2.90
2023-01-06T05:49:26.309Z,2.90
2023-01-06T05:51:53.344Z,2.90
2023-01-06T05:54:20.405Z,3.00
2023-01-06T05:56:47.519Z,3.00
2023-01-06T05:59:14.686Z,3.00
2023-01-06T06:01:41.986Z,3.00
2023-01-06T06:04:11.195Z,3.00
2023-01-06T06:06:38.275Z,3.00
2023-01-06T06:09:05.966Z,3.10
2023-01-06T06:11:33.081Z,3.10
2023-01-06T06:14:00.265Z,3.10
2023-01-06T06:16:28.642Z,3.10
2023-01-06T06:18:57.597Z,3.10
2023-01-06T06:21:27.403Z,3.20
2023-01-06T06:23:56.249Z,3.20
2023-01-06T06:26:24.379Z,3.20
2023-01-06T06:28:51.613Z,3.30
2023-01-06T06:31:24.756Z,3.30
2023-01-06T06:33:53.583Z,3.30
2023-01-06T06:36:21.058Z,3.30
2023-01-06T06:38:50.149Z,3.30
2023-01-06T06:41:17.992Z,3.30
2023-01-06T06:43:45.493Z,3.40
2023-01-06T06:46:12.913Z,3.40
2023-01-06T06:48:40.456Z,3.40
2023-01-06T06:51:10.572Z,3.40
2023-01-06T06:53:38.458Z,3.40
2023-01-06T06:56:07.145Z,3.40
2023-01-06T06:58:35.690Z,3.40
2023-01-06T07:01:12.934Z,3.40
2023-01-06T07:03:40.667Z,3.40
2023-01-06T07:06:11.498Z,3.50
2023-01-06T07:08:38.631Z,3.40
2023-01-06T07:11:05.849Z,3.40
2023-01-06T07:13:32.882Z,3.40
2023-01-06T07:16:00.047Z,3.50
2023-01-06T07:18:27.297Z,3.50
2023-01-06T07:20:54.735Z,3.50
2023-01-06T07:23:23.442Z,3.50
2023-01-06T07:25:55.181Z,3.40
2023-01-06T07:28:22.441Z,3.50
2023-01-06T07:30:49.871Z,3.40
2023-01-06T07:33:17.274Z,3.50
2023-01-06T07:35:44.333Z,3.50
2023-01-06T07:38:11.821Z,3.50
2023-01-06T07:40:39.415Z,3.50
2023-01-06T07:43:08.140Z,3.50
2023-01-06T07:45:35.638Z,3.50
2023-01-06T07:48:03.130Z,3.50
2023-01-06T07:50:30.899Z,3.50
2023-01-06T07:52:59.210Z,3.50
2023-01-06T07:55:26.256Z,3.50
2023-01-06T07:57:54.152Z,3.50
2023-01-06T08:00:21.714Z,3.40
2023-01-06T08:02:49.182Z,3.50
2023-01-06T08:05:16.359Z,3.50
2023-01-06T08:07:43.669Z,3.40
2023-01-06T08:10:10.823Z,3.40
2023-01-06T08:12:37.885Z,3.40
2023-01-06T08:15:05.797Z,3.50
2023-01-06T08:17:32.903Z,3.50
2023-01-06T08:19:59.936Z,3.40
2023-01-06T08:22:27.041Z,3.40
2023-01-06T08:24:54.087Z,3.40
2023-01-06T08:27:21.165Z,3.50
2023-01-06T08:29:50.288Z,3.40
2023-01-06T08:32:17.530Z,3.40
2023-01-06T08:34:44.662Z,3.50
2023-01-06T08:37:11.889Z,3.60
2023-01-06T08:39:39.066Z,3.60
2023-01-06T08:42:06.268Z,3.60
2023-01-06T08:44:33.334Z,3.60
2023-01-06T08:47:00.438Z,3.70
2023-01-06T08:49:27.479Z,3.70
2023-01-06T08:51:54.540Z,3.80
2023-01-06T08:54:21.801Z,3.70
2023-01-06T08:56:48.967Z,3.70
2023-01-06T08:59:17.651Z,3.70
2023-01-06T09:01:45.138Z,3.80
2023-01-06T09:04:13.284Z,3.80
2023-01-06T09:06:43.451Z,3.80
2023-01-06T09:09:12.074Z,3.80
2023-01-06T09:11:42.618Z,3.80
2023-01-06T09:14:11.495Z,3.80
2023-01-06T09:16:38.556Z,3.90
2023-01-06T09:19:05.947Z,3.90
2023-01-06T09:21:32.997Z,4.00
2023-01-06T09:24:00.015Z,4.00
2023-01-06T09:26:27.069Z,4.10
2023-01-06T09:28:54.149Z,4.20
2023-01-06T09:31:21.300Z,4.10
2023-01-06T09:33:48.667Z,4.20
2023-01-06T09:36:15.678Z,4.30
2023-01-06T09:38:42.788Z,4.40
2023-01-06T09:41:32.612Z,4.40
2023-01-06T09:44:16.319Z,4.50
2023-01-06T09:46:47.083Z,4.50
2023-01-06T09:49:42.551Z,4.50
2023-01-06T09:52:35.004Z,4.50
2023-01-06T09:55:16.878Z,4.60
2023-01-06T09:57:49.839Z,4.70
2023-01-06T10:00:38.998Z,4.70
2023-01-06T10:03:11.533Z,4.80
2023-01-06T10:06:00.558Z,4.80
2023-01-06T10:08:52.502Z,4.90
2023-01-06T10:11:47.667Z,5.00
2023-01-06T10:14:39.294Z,5.00
2023-01-06T10:17:27.397Z,4.90
2023-01-06T10:20:08.198Z,5.00
2023-01-06T10:22:47.603Z,5.10
2023-01-06T10:25:33.088Z,5.20
2023-01-06T10:28:21.946Z,5.20
2023-01-06T10:30:52.549Z,5.30
2023-01-06T10:33:31.752Z,5.30
2023-01-06T10:36:00.255Z,5.40
2023-01-06T10:38:42.399Z,5.40
2023-01-06T10:41:25.380Z,5.40
2023-01-06T10:43:52.568Z,5.40
2023-01-06T10:46:19.794Z,5.50
2023-01-06T10:48:49.538Z,5.50
2023-01-06T10:51:35.272Z,5.40
2023-01-06T10:54:25.062Z,5.50
2023-01-06T10:56:56.666Z,5.60
2023-01-06T10:59:23.838Z,5.60
2023-01-06T11:01:55.932Z,5.70
2023-01-06T11:04:24.325Z,5.70
2023-01-06T11:06:55.086Z,5.70
2023-01-06T11:09:41.814Z,5.80
2023-01-06T11:12:13.589Z,5.70
2023-01-06T11:14:41.897Z,5.70
2023-01-06T11:17:15.996Z,5.70
2023-01-06T11:19:45.291Z,5.70
2023-01-06T11:22:39.196Z,5.80
2023-01-06T11:25:21.746Z,5.90
2023-01-06T11:27:50.216Z,6.10
2023-01-06T11:30:29.065Z,6.10
2023-01-06T11:32:56.306Z,6.10
2023-01-06T11:35:31.475Z,6.20
2023-01-06T11:38:00.345Z,6.20
2023-01-06T11:40:30.114Z,6.30
2023-01-06T11:43:00.693Z,6.30
2023-01-06T11:45:38.746Z,6.30
2023-01-06T11:48:14.169Z,6.20
2023-01-06T11:50:41.225Z,6.20
2023-01-06T11:53:18.832Z,6.20
2023-01-06T11:55:59.574Z,6.20
2023-01-06T11:58:29.967Z,6.20
2023-01-06T12:01:06.446Z,6.20
2023-01-06T12:03:44.236Z,6.20
2023-01-06T12:06:11.250Z,6.20
2023-01-06T12:08:49.645Z,6.20
2023-01-06T12:11:39.924Z,6.20
2023-01-06T12:14:28.139Z,6.20
2023-01-06T12:17:30.213Z,6.10
2023-01-06T12:20:17.842Z,6.20
2023-01-06T12:23:26.451Z,6.10
2023-01-06T12:25:58.256Z,6.10
2023-01-06T12:28:35.260Z,6.10
2023-01-06T12:31:30.705Z,6.10
2023-01-06T12:34:03.678Z,6.00
2023-01-06T12:37:05.563Z,6.00
2023-01-06T12:39:47.317Z,6.00
2023-01-06T12:42:37.449Z,6.00
2023-01-06T12:45:29.265Z,6.00
2023-01-06T12:47:58.114Z,6.00
2023-01-06T12:50:40.427Z,6.10
2023-01-06T12:53:20.907Z,6.10
2023-01-06T12:56:18.210Z,6.10
2023-01-06T12:59:29.521Z,6.10
2023-01-06T13:02:15.359Z,6.20
2023-01-06T13:05:00.710Z,6.20
2023-01-06T13:07:41.923Z,6.20
2023-01-06T13:10:30.209Z,6.20
2023-01-06T13:13:03.236Z,6.20
2023-01-06T13:15:32.521Z,6.20
2023-01-06T13:18:11.690Z,6.20
2023-01-06T13:20:42.131Z,6.20
2023-01-06T13:23:34.527Z,6.30
2023-01-06T13:26:13.519Z,6.30
2023-01-06T13:29:18.257Z,6.20
2023-01-06T13:32:10.061Z,6.20
2023-01-06T13:35:02.550Z,6.30
2023-01-06T13:37:53.809Z,6.30
2023-01-06T13:40:29.661Z,6.30
2023-01-06T13:43:20.202Z,6.40
2023-01-06T13:45:52.425Z,6.40
2023-01-06T13:48:24.331Z,6.40
2023-01-06T13:50:51.738Z,6.50
2023-01-06T13:53:22.181Z,6.50
2023-01-06T13:56:09.545Z,6.50
2023-01-06T13:58:37.920Z,6.60
2023-01-06T14:01:10.979Z,6.60
2023-01-06T14:03:40.633Z,6.60
2023-01-06T14:06:11.956Z,6.50
2023-01-06T14:08:47.556Z,6.60
2023-01-06T14:11:30.773Z,6.60
2023-01-06T14:14:00.231Z,6.60
2023-01-06T14:16:47.076Z,6.60
2023-01-06T14:19:23.116Z,6.50
2023-01-06T14:22:11.911Z,6.40
2023-01-06T14:24:49.716Z,6.40
2023-01-06T14:27:16.833Z,6.40
2023-01-06T14:29:45.136Z,6.40
2023-01-06T14:32:14.931Z,6.40
2023-01-06T14:34:48.595Z,6.50
2023-01-06T14:37:19.058Z,6.40
2023-01-06T14:39:50.367Z,6.40
2023-01-06T14:42:32.331Z,6.40
2023-01-06T14:45:03.638Z,6.40
2023-01-06T14:47:46.215Z,6.40
2023-01-06T14:50:46.559Z,6.50
2023-01-06T14:53:17.411Z,6.40
2023-01-06T14:55:49.108Z,6.50
2023-01-06T14:58:34.204Z,6.40
2023-01-06T15:01:02.979Z,6.40
2023-01-06T15:03:32.037Z,6.50
2023-01-06T15:06:23.341Z,6.50
2023-01-06T15:08:51.218Z,6.50
2023-01-06T15:11:29.572Z,6.60
2023-01-06T15:13:57.184Z,6.60
2023-01-06T15:16:37.216Z,6.60
2023-01-06T15:19:15.969Z,6.60
2023-01-06T15:21:46.948Z,6.60
2023-01-06T15:24:27.868Z,6.60
2023-01-06T15:26:57.107Z,6.70
2023-01-06T15:29:25.856Z,6.70
2023-01-06T15:31:54.084Z,6.70
2023-01-06T15:34:47.235Z,6.70
2023-01-06T15:37:27.159Z,6.70
2023-01-06T15:39:54.691Z,6.60
2023-01-06T15:42:24.444Z,6.70
2023-01-06T15:44:57.264Z,6.70
2023-01-06T15:47:45.920Z,6.70
2023-01-06T15:50:21.858Z,6.70
2023-01-06T15:52:51.818Z,6.70
2023-01-06T15:55:27.084Z,6.70
2023-01-06T15:57:59.544Z,6.70
2023-01-06T16:00:30.387Z,6.80
2023-01-06T16:02:59.377Z,6.70
2023-01-06T16:05:43.050Z,6.80
2023-01-06T16:08:25.291Z,6.80
2023-01-06T16:11:37.951Z,6.90
2023-01-06T16:14:07.161Z,6.90
2023-01-06T16:16:40.334Z,6.90
2023-01-06T16:19:14.874Z,7.00
2023-01-06T16:21:44.351Z,7.00
2023-01-06T16:24:23.111Z,7.00
2023-01-06T16:27:05.627Z,7.00
2023-01-06T16:29:35.757Z,7.00
2023-01-06T16:32:30.033Z,7.00
2023-01-06T16:35:02.419Z,7.00
2023-01-06T16:37:34.229Z,7.00
2023-01-06T16:40:01.652Z,7.00
2023-01-06T16:42:43.027Z,7.00
2023-01-06T16:45:12.992Z,7.00
2023-01-06T16:47:41.157Z,7.00
2023-01-06T16:50:21.028Z,7.00
2023-01-06T16:53:10.902Z,6.90
2023-01-06T16:55:40.171Z,7.00
2023-01-06T16:58:20.523Z,7.00
2023-01-06T17:00:53.560Z,7.00
2023-01-06T17:03:30.301Z,7.10
2023-01-06T17:05:58.087Z,7.00
2023-01-06T17:08:29.152Z,7.00
2023-01-06T17:10:57.090Z,7.10
2023-01-06T17:13:36.157Z,7.10
2023-01-06T17:16:27.425Z,7.10
2023-01-06T17:18:57.297Z,7.20
2023-01-06T17:21:35.421Z,7.30
2023-01-06T17:24:08.689Z,7.40
2023-01-06T17:26:36.217Z,7.50
2023-01-06T17:29:10.344Z,7.60
2023-01-06T17:31:43.582Z,7.60
2023-01-06T17:34:21.886Z,7.70
2023-01-06T17:36:52.754Z,7.70
2023-01-06T17:39:22.282Z,7.80
2023-01-06T17:41:50.202Z,7.80
2023-01-06T17:44:19.706Z,7.80
2023-01-06T17:46:47.009Z,7.80
2023-01-06T17:49:19.887Z,7.80
2023-01-06T17:51:48.916Z,7.90
2023-01-06T17:54:36.887Z,7.90
2023-01-06T17:57:13.392Z,7.90
2023-01-06T17:59:41.553Z,7.90
2023-01-06T18:02:35.948Z,7.90
2023-01-06T18:05:33.484Z,7.90
2023-01-06T18:08:07.357Z,7.90
2023-01-06T18:10:36.183Z,8.00
2023-01-06T18:13:14.553Z,8.00
2023-01-06T18:15:42.293Z,8.00
2023-01-06T18:18:36.054Z,8.00
2023-01-06T18:21:16.850Z,8.00
2023-01-06T18:23:47.400Z,8.00
2023-01-06T18:26:26.610Z,8.00
2023-01-06T18:29:18.149Z,8.00
2023-01-06T18:31:47.851Z,8.00
2023-01-06T18:34:35.189Z,7.90
2023-01-06T18:37:02.577Z,7.90
2023-01-06T18:39:36.360Z,8.00
2023-01-06T18:42:24.021Z,8.00
2023-01-06T18:45:03.260Z,8.00
2023-01-06T18:47:31.519Z,8.00
2023-01-06T18:50:27.356Z,8.00
2023-01-06T18:52:58.623Z,8.00
2023-01-06T18:55:36.183Z,8.10
2023-01-06T18:58:12.113Z,8.10
2023-01-06T19:00:42.662Z,8.20
2023-01-06T19:03:28.861Z,8.20
2023-01-06T19:06:10.966Z,8.20
2023-01-06T19:08:40.720Z,8.20
2023-01-06T19:11:16.227Z,8.20
2023-01-06T19:13:45.888Z,8.20
2023-01-06T19:16:35.672Z,8.20
2023-01-06T19:19:21.017Z,8.20
2023-01-06T19:21:48.395Z,8.20
2023-01-06T19:24:28.266Z,8.20
2023-01-06T19:26:58.382Z,8.10
2023-01-06T19:29:33.337Z,8.10
2023-01-06T19:32:05.573Z,8.10
2023-01-06T19:34:32.884Z,8.10
2023-01-06T19:37:00.235Z,8.20
2023-01-06T19:39:41.780Z,8.20
2023-01-06T19:42:08.865Z,8.20
2023-01-06T19:44:38.630Z,8.20
2023-01-06T19:47:39.128Z,8.20
2023-01-06T19:50:19.995Z,8.10
2023-01-06T19:52:47.101Z,8.20
2023-01-06T19:55:17.232Z,8.20
2023-01-06T19:57:56.937Z,8.20
2023-01-06T20:00:37.941Z,8.20
2023-01-06T20:03:32.353Z,8.20
2023-01-06T20:05:59.602Z,8.20
2023-01-06T20:08:26.729Z,8.20
2023-01-06T20:10:53.905Z,8.20
2023-01-06T20:13:21.299Z,8.20
2023-01-06T20:15:48.347Z,8.20
2023-01-06T20:18:15.383Z,8.20
2023-01-06T20:20:42.513Z,8.20
2023-01-06T20:23:09.574Z,8.20
2023-01-06T20:25:37.083Z,8.20
2023-01-06T20:28:04.301Z,8.20
2023-01-06T20:30:31.345Z,8.20
2023-01-06T20:32:58.449Z,8.10
2023-01-06T20:35:25.585Z,8.10
2023-01-06T20:37:52.963Z,8.10
2023-01-06T20:40:20.773Z,8.00
2023-01-06T20:42:47.966Z,8.00
2023-01-06T20:45:15.230Z,7.90
2023-01-06T20:47:44.103Z,7.90
2023-01-06T20:50:13.896Z,7.90
2023-01-06T20:52:47.207Z,7.90
2023-01-06T20:55:14.731Z,7.90
2023-01-06T20:57:41.767Z,7.80
2023-01-06T21:00:11.039Z,7.80
2023-01-06T21:02:38.680Z,7.80
2023-01-06T21:05:06.970Z,7.90
2023-01-06T21:07:34.324Z,7.80
2023-01-06T21:10:01.951Z,7.80
2023-01-06T21:12:28.999Z,7.90
2023-01-06T21:14:56.064Z,7.90
2023-01-06T21:17:23.159Z,8.00
2023-01-06T21:19:50.289Z,8.00
2023-01-06T21:22:17.343Z,8.00
2023-01-06T21:24:44.439Z,8.00
2023-01-06T21:27:11.468Z,8.00
2023-01-06T21:29:38.605Z,8.00
2023-01-06T21:32:05.718Z,7.90
2023-01-06T21:34:32.961Z,7.90
2023-01-06T21:36:59.991Z,7.90
2023-01-06T21:39:27.100Z,7.80
2023-01-06T21:42:12.502Z,7.80
2023-01-06T21:44:39.557Z,7.80
2023-01-06T21:47:06.601Z,7.70
2023-01-06T21:49:33.944Z,7.80
2023-01-06T21:52:03.041Z,7.70
2023-01-06T21:54:30.388Z,7.70
2023-01-06T21:56:57.537Z,7.70
2023-01-06T21:59:24.665Z,7.80
2023-01-06T22:01:51.977Z,7.70
2023-01-06T22:04:19.078Z,7.70
2023-01-06T22:06:47.055Z,7.70
2023-01-06T22:09:16.090Z,7.60
2023-01-06T22:11:44.107Z,7.60
2023-01-06T22:14:11.850Z,7.60
2023-01-06T22:16:40.531Z,7.50
2023-01-06T22:19:09.575Z,7.50
2023-01-06T22:21:37.787Z,7.50
2023-01-06T22:24:07.135Z,7.50
2023-01-06T22:26:34.177Z,7.40
2023-01-06T22:29:01.458Z,7.30
2023-01-06T22:31:28.507Z,7.20
2023-01-06T22:33:55.716Z,7.20
2023-01-06T22:36:22.768Z,7.20
2023-01-06T22:38:49.791Z,7.10
2023-01-06T22:41:16.850Z,7.10
2023-01-06T22:43:43.911Z,7.10
2023-01-06T22:46:11.099Z,7.10
2023-01-06T22:48:38.190Z,7.10
2023-01-06T22:51:06.793Z,7.10
2023-01-06T22:53:34.514Z,7.00
2023-01-06T22:56:10.038Z,7.00
2023-01-06T22:58:39.071Z,6.90
2023-01-06T23:01:07.416Z,6.90
2023-01-06T23:03:35.183Z,6.90
2023-01-06T23:06:08.022Z,6.90
2023-01-06T23:08:40.589Z,6.90
2023-01-06T23:11:13.097Z,6.80
2023-01-06T23:13:41.795Z,6.80
2023-01-06T23:16:13.995Z,6.80
2023-01-06T23:18:44.135Z,6.70
2023-01-06T23:21:22.277Z,6.80
2023-01-06T23:23:50.800Z,6.70
2023-01-06T23:26:24.627Z,6.70
2023-01-06T23:28:53.059Z,6.70
2023-01-06T23:31:22.956Z,6.60
2023-01-06T23:33:52.911Z,6.50
2023-01-06T23:36:20.838Z,6.40
2023-01-06T23:38:48.307Z,6.40
2023-01-06T23:41:18.316Z,6.40
2023-01-06T23:43:45.459Z,6.40
2023-01-06T23:46:19.145Z,6.30
2023-01-06T23:48:46.888Z,6.20
2023-01-06T23:51:14.441Z,6.20
2023-01-06T23:53:41.937Z,6.10
2023-01-06T23:56:18.815Z,6.20
2023-01-06T23:58:48.285Z,6.10
